Time;durP1;ratioP1;P1;durP2;ratioP2;P2;SDS_P1;SDS_P2;PMS_P1;PMS_P2;Temp;Humidity;BMP_temperature;BMP_pressure;BME280_temperature;BME280_humidity;BME280_pressure;Samples;Min_cycle;Max_cycle;Signal;HPM_P1;HPM_P2
2022/06/07 00:02:13;;;;;;;3.43;2.30;;;;;;;;;;5074547;28;20431;-77
2022/06/07 00:04:40;;;;;;;2.17;1.97;;;;;;;;;;5074226;28;20463;-74
2022/06/07 00:07:07;;;;;;;2.30;2.10;;;;;;;;;;5074681;28;20414;-75
2022/06/07 00:09:33;;;;;;;4.07;2.10;;;;;;;;;;5074467;28;20402;-74
2022/06/07 00:12:00;;;;;;;4.47;2.60;;;;;;;;;;5074745;28;20957;-74
2022/06/07 00:14:26;;;;;;;2.40;2.20;;;;;;;;;;5074173;28;20413;-74
2022/06/07 00:16:54;;;;;;;3.40;2.63;;;;;;;;;;5074616;28;20412;-73
2022/06/07 00:19:20;;;;;;;2.93;2.37;;;;;;;;;;5074567;28;20426;-75
2022/06/07 00:21:46;;;;;;;4.23;2.70;;;;;;;;;;5074317;28;20461;-75
2022/06/07 00:24:12;;;;;;;2.60;2.27;;;;;;;;;;5073688;28;20483;-74
2022/06/07 00:26:38;;;;;;;3.10;2.13;;;;;;;;;;5074162;28;20399;-75
2022/06/07 00:29:06;;;;;;;4.67;2.37;;;;;;;;;;5074301;28;20411;-74
2022/06/07 00:31:32;;;;;;;2.33;2.13;;;;;;;;;;5072679;28;20522;-73
2022/06/07 00:33:59;;;;;;;5.87;2.60;;;;;;;;;;5073461;28;20782;-74
2022/06/07 00:36:25;;;;;;;3.10;2.40;;;;;;;;;;5073850;28;20904;-75
2022/06/07 00:38:50;;;;;;;2.70;2.50;;;;;;;;;;5073904;28;20415;-75
2022/06/07 00:41:16;;;;;;;2.67;2.23;;;;;;;;;;5073988;28;20412;-75
2022/06/07 00:44:02;;;;;;;2.70;2.40;;;;;;;;;;5073522;28;20513;-75
2022/06/07 00:46:28;;;;;;;4.33;2.23;;;;;;;;;;5073562;28;20502;-74
2022/06/07 00:48:54;;;;;;;2.50;2.30;;;;;;;;;;5073723;28;20494;-74
2022/06/07 00:51:20;;;;;;;5.50;2.40;;;;;;;;;;5073699;28;20457;-74
2022/06/07 00:53:47;;;;;;;3.93;2.60;;;;;;;;;;5073376;28;20411;-75
2022/06/07 00:56:14;;;;;;;2.50;2.30;;;;;;;;;;5073632;28;20435;-76
2022/06/07 00:58:40;;;;;;;4.27;2.60;;;;;;;;;;5072236;28;20424;-77
2022/06/07 01:01:06;;;;;;;3.13;2.93;;;;;;;;;;5072293;28;20978;-76
2022/06/07 01:03:32;;;;;;;4.20;2.33;;;;;;;;;;5073452;28;20455;-77
2022/06/07 01:10:43;;;;;;;2.63;2.33;;;;;;;;;;5073513;28;20432;-76
2022/06/07 01:11:28;;;;;;;3.50;2.30;;;;;;;;;;5073911;28;20445;-75
2022/06/07 01:13:54;;;;;;;5.93;2.57;;;;;;;;;;5073107;28;20416;-76
2022/06/07 01:16:21;;;;;;;3.67;2.37;;;;;;;;;;5073380;28;20415;-77
2022/06/07 01:18:47;;;;;;;3.10;2.60;;;;;;;;;;5073290;28;20415;-75
2022/06/07 01:21:29;;;;;;;3.00;2.20;;;;;;;;;;5073324;28;20430;-77
2022/06/07 01:23:55;;;;;;;3.83;2.77;;;;;;;;;;5072913;28;20454;-77
2022/06/07 01:26:21;;;;;;;3.63;2.27;;;;;;;;;;5073251;28;20418;-76
2022/06/07 01:28:47;;;;;;;3.47;2.60;;;;;;;;;;5073137;28;20419;-77
2022/06/07 01:31:13;;;;;;;4.37;2.63;;;;;;;;;;5073067;28;20793;-76
2022/06/07 01:33:39;;;;;;;5.80;2.67;;;;;;;;;;5072870;28;20506;-76
2022/06/07 01:36:07;;;;;;;4.20;3.43;;;;;;;;;;5071785;28;20440;-75
2022/06/07 01:38:34;;;;;;;3.67;2.77;;;;;;;;;;5073048;28;20502;-75
2022/06/07 01:43:45;;;;;;;3.97;2.50;;;;;;;;;;5072903;28;20461;-74
2022/06/07 01:46:11;;;;;;;3.70;3.13;;;;;;;;;;5072415;28;20432;-75
2022/06/07 01:48:37;;;;;;;3.63;2.70;;;;;;;;;;5073163;28;20803;-76
2022/06/07 01:51:04;;;;;;;2.70;2.50;;;;;;;;;;5072925;28;20382;-75
2022/06/07 01:53:31;;;;;;;3.57;2.60;;;;;;;;;;5073062;28;20787;-77
2022/06/07 01:56:03;;;;;;;3.70;2.50;;;;;;;;;;5072870;28;20456;-77
2022/06/07 01:58:29;;;;;;;3.80;2.60;;;;;;;;;;5072886;28;20745;-77
2022/06/07 02:00:55;;;;;;;4.00;2.33;;;;;;;;;;5071530;28;20415;-77
2022/06/07 02:03:21;;;;;;;3.30;2.50;;;;;;;;;;5072470;28;20557;-76
2022/06/07 02:05:58;;;;;;;6.53;2.43;;;;;;;;;;5073252;28;20847;-76
2022/06/07 02:08:24;;;;;;;5.43;3.27;;;;;;;;;;5072930;28;20494;-77
2022/06/07 02:10:50;;;;;;;5.33;2.70;;;;;;;;;;5072829;28;20411;-76
2022/06/07 02:13:16;;;;;;;3.00;2.33;;;;;;;;;;5072125;28;20430;-75
2022/06/07 02:15:42;;;;;;;5.23;3.07;;;;;;;;;;5071673;28;20431;-75
2022/06/07 02:18:08;;;;;;;2.97;2.17;;;;;;;;;;5071709;28;20423;-75
2022/06/07 02:20:34;;;;;;;3.10;2.80;;;;;;;;;;5072809;28;20447;-76
2022/06/07 02:23:02;;;;;;;3.43;2.20;;;;;;;;;;5072341;28;20466;-77
2022/06/07 02:25:28;;;;;;;2.87;2.57;;;;;;;;;;5071227;28;20565;-76
2022/06/07 02:27:54;;;;;;;2.57;2.37;;;;;;;;;;5072498;28;20407;-76
2022/06/07 02:30:21;;;;;;;4.23;2.50;;;;;;;;;;5071196;28;20501;-77
2022/06/07 02:32:47;;;;;;;2.70;2.50;;;;;;;;;;5054700;28;20452;-75
2022/06/07 02:35:14;;;;;;;6.17;3.80;;;;;;;;;;5072122;28;20447;-77
2022/06/07 02:37:40;;;;;;;2.30;2.20;;;;;;;;;;5072498;28;20797;-76
2022/06/07 02:40:07;;;;;;;3.30;2.40;;;;;;;;;;5072488;28;20422;-76
2022/06/07 02:42:33;;;;;;;4.90;2.30;;;;;;;;;;5072386;28;20412;-76
2022/06/07 02:44:59;;;;;;;4.13;2.33;;;;;;;;;;5071987;28;20779;-77
2022/06/07 02:47:26;;;;;;;3.47;2.93;;;;;;;;;;5072412;28;20407;-76
2022/06/07 02:49:53;;;;;;;3.50;2.67;;;;;;;;;;5072310;28;20506;-76
2022/06/07 02:52:20;;;;;;;3.22;2.92;;;;;;;;;;5072458;28;20177;-75
2022/06/07 02:54:46;;;;;;;2.77;2.57;;;;;;;;;;5072194;28;20281;-76
2022/06/07 02:57:14;;;;;;;5.17;2.53;;;;;;;;;;5072917;28;20892;-76
2022/06/07 02:59:40;;;;;;;6.90;2.93;;;;;;;;;;5075897;28;20415;-76
2022/06/07 03:02:06;;;;;;;2.97;2.63;;;;;;;;;;5075703;28;20488;-75
2022/06/07 03:04:33;;;;;;;3.60;2.85;;;;;;;;;;5075372;28;20478;-76
2022/06/07 03:07:00;;;;;;;2.97;2.45;;;;;;;;;;5074896;28;20260;-77
2022/06/07 03:09:26;;;;;;;2.95;2.50;;;;;;;;;;5076114;28;20334;-76
2022/06/07 03:11:52;;;;;;;5.10;2.77;;;;;;;;;;5075887;28;20173;-76
2022/06/07 03:14:18;;;;;;;4.80;3.17;;;;;;;;;;5074006;28;20442;-76
2022/06/07 03:16:44;;;;;;;2.75;2.50;;;;;;;;;;5075743;28;20391;-76
2022/06/07 03:19:10;;;;;;;2.60;2.40;;;;;;;;;;5075382;28;20298;-77
2022/06/07 03:21:37;;;;;;;2.63;2.42;;;;;;;;;;5075552;28;20408;-77
2022/06/07 03:24:03;;;;;;;2.83;2.60;;;;;;;;;;5075223;28;20224;-76
2022/06/07 03:26:29;;;;;;;4.20;2.60;;;;;;;;;;5074204;28;20258;-76
2022/06/07 03:28:56;;;;;;;2.70;2.50;;;;;;;;;;5074301;28;20173;-76
2022/06/07 03:31:22;;;;;;;3.10;2.65;;;;;;;;;;5075226;28;20196;-77
2022/06/07 03:33:48;;;;;;;2.70;2.50;;;;;;;;;;5074881;28;20544;-76
2022/06/07 03:36:20;;;;;;;5.63;2.90;;;;;;;;;;5075134;28;20431;-77
2022/06/07 03:38:46;;;;;;;5.65;3.10;;;;;;;;;;5075445;28;20450;-75
2022/06/07 03:41:16;;;;;;;2.60;2.40;;;;;;;;;;5075362;28;20211;-77
2022/06/07 03:43:42;;;;;;;3.85;2.60;;;;;;;;;;5074787;28;20266;-75
2022/06/07 03:46:09;;;;;;;5.90;3.20;;;;;;;;;;5074752;28;20669;-76
2022/06/07 03:48:35;;;;;;;2.65;2.33;;;;;;;;;;5075160;28;20450;-76
2022/06/07 03:51:01;;;;;;;4.13;2.50;;;;;;;;;;5075072;28;20169;-75
2022/06/07 03:53:27;;;;;;;6.40;2.77;;;;;;;;;;5074730;28;20185;-76
2022/06/07 03:55:54;;;;;;;3.10;2.80;;;;;;;;;;5074765;28;20802;-77
2022/06/07 03:58:20;;;;;;;2.72;2.20;;;;;;;;;;5074725;28;20173;-76
2022/06/07 04:00:46;;;;;;;3.65;2.72;;;;;;;;;;5075014;28;20189;-76
2022/06/07 04:03:12;;;;;;;2.88;2.67;;;;;;;;;;5074189;28;20565;-76
2022/06/07 04:05:39;;;;;;;3.72;2.15;;;;;;;;;;5074860;28;20648;-76
2022/06/07 04:08:11;;;;;;;2.50;2.30;;;;;;;;;;5073974;28;20216;-75
2022/06/07 04:10:44;;;;;;;3.30;3.00;;;;;;;;;;5074503;28;20419;-76
2022/06/07 04:13:10;;;;;;;10.52;2.63;;;;;;;;;;5074492;28;20185;-75
2022/06/07 04:15:36;;;;;;;3.57;2.63;;;;;;;;;;5074529;28;20272;-75
2022/06/07 04:18:02;;;;;;;3.45;2.30;;;;;;;;;;5073059;28;20747;-75
2022/06/07 04:20:28;;;;;;;7.53;2.73;;;;;;;;;;5074000;28;20189;-76
2022/06/07 04:22:54;;;;;;;3.17;2.87;;;;;;;;;;5074148;28;20562;-76
2022/06/07 04:25:19;;;;;;;4.57;2.60;;;;;;;;;;5074278;28;20615;-76
2022/06/07 04:27:45;;;;;;;3.03;2.80;;;;;;;;;;5074417;28;20752;-76
2022/06/07 04:30:12;;;;;;;3.80;2.75;;;;;;;;;;5073990;28;20436;-75
2022/06/07 04:32:39;;;;;;;4.35;3.78;;;;;;;;;;5074297;28;20177;-76
2022/06/07 04:35:06;;;;;;;2.92;2.72;;;;;;;;;;5073684;28;20743;-75
2022/06/07 04:37:32;;;;;;;4.03;2.70;;;;;;;;;;5072675;28;20182;-76
2022/06/07 04:39:58;;;;;;;4.50;2.77;;;;;;;;;;5074006;28;20626;-76
2022/06/07 04:42:24;;;;;;;5.00;2.90;;;;;;;;;;5072386;28;20446;-78
2022/06/07 04:44:51;;;;;;;2.77;2.53;;;;;;;;;;5073479;28;20955;-74
2022/06/07 04:47:17;;;;;;;4.90;2.87;;;;;;;;;;5074044;28;20878;-78
2022/06/07 04:49:43;;;;;;;2.97;2.37;;;;;;;;;;5073878;28;20486;-76
2022/06/07 04:52:09;;;;;;;3.23;2.70;;;;;;;;;;5074231;28;20753;-75
2022/06/07 04:54:35;;;;;;;7.10;3.00;;;;;;;;;;5073230;28;20439;-75
2022/06/07 04:57:01;;;;;;;4.70;2.77;;;;;;;;;;5073953;28;20774;-77
2022/06/07 04:59:28;;;;;;;5.63;3.00;;;;;;;;;;5073781;28;20465;-76
2022/06/07 05:01:54;;;;;;;2.50;2.30;;;;;;;;;;5074078;28;20820;-76
2022/06/07 05:04:20;;;;;;;3.83;2.90;;;;;;;;;;5072976;28;20833;-77
2022/06/07 05:06:47;;;;;;;4.80;3.03;;;;;;;;;;5073383;28;20410;-78
2022/06/07 05:09:15;;;;;;;3.23;2.93;;;;;;;;;;5073544;28;20746;-75
2022/06/07 05:11:41;;;;;;;2.07;1.90;;;;;;;;;;5073445;28;20439;-75
2022/06/07 05:14:08;;;;;;;3.50;2.50;;;;;;;;;;5073109;28;20423;-75
2022/06/07 05:16:37;;;;;;;3.30;2.03;;;;;;;;;;5073257;28;20876;-76
2022/06/07 05:19:03;;;;;;;2.90;2.30;;;;;;;;;;5073308;28;20423;-76
2022/06/07 05:21:30;;;;;;;3.57;2.33;;;;;;;;;;5072297;28;20439;-76
2022/06/07 05:23:56;;;;;;;2.80;2.30;;;;;;;;;;5072795;28;20459;-76
2022/06/07 05:26:29;;;;;;;2.77;2.20;;;;;;;;;;5072086;28;20411;-77
2022/06/07 05:28:55;;;;;;;4.00;2.10;;;;;;;;;;5073361;28;20460;-77
2022/06/07 05:31:21;;;;;;;2.83;2.23;;;;;;;;;;5072874;28;20431;-76
2022/06/07 05:33:47;;;;;;;2.47;2.07;;;;;;;;;;5072746;28;20431;-76
2022/06/07 05:36:13;;;;;;;2.53;2.33;;;;;;;;;;5072939;28;20432;-76
2022/06/07 05:38:39;;;;;;;6.20;2.07;;;;;;;;;;5073012;28;20418;-76
2022/06/07 05:41:05;;;;;;;3.93;2.30;;;;;;;;;;5073002;28;20772;-77
2022/06/07 05:43:31;;;;;;;2.37;1.87;;;;;;;;;;5072483;28;20971;-77
2022/06/07 05:45:57;;;;;;;3.63;1.80;;;;;;;;;;5072768;28;20434;-76
2022/06/07 05:48:24;;;;;;;2.07;1.83;;;;;;;;;;5072873;28;20378;-77
2022/06/07 05:50:53;;;;;;;4.03;1.63;;;;;;;;;;5072652;28;20422;-78
2022/06/07 05:53:20;;;;;;;1.77;1.30;;;;;;;;;;5072679;28;20486;-75
2022/06/07 05:55:46;;;;;;;3.90;1.30;;;;;;;;;;5071749;28;20442;-77
2022/06/07 05:58:12;;;;;;;3.70;1.90;;;;;;;;;;5072996;28;20409;-76
2022/06/07 06:00:39;;;;;;;2.47;1.37;;;;;;;;;;5072918;28;20387;-75
2022/06/07 06:03:05;;;;;;;2.37;1.50;;;;;;;;;;5071602;28;20434;-77
2022/06/07 06:05:31;;;;;;;5.20;1.67;;;;;;;;;;5072825;28;20470;-77
2022/06/07 06:10:42;;;;;;;4.63;1.57;;;;;;;;;;5073065;28;20448;-75
2022/06/07 06:13:08;;;;;;;3.30;1.20;;;;;;;;;;5072367;28;20482;-77
2022/06/07 06:15:34;;;;;;;4.20;1.70;;;;;;;;;;5072751;28;20427;-76
2022/06/07 06:18:05;;;;;;;1.67;1.40;;;;;;;;;;5071544;28;20420;-77
2022/06/07 06:20:31;;;;;;;1.53;1.10;;;;;;;;;;5071414;28;20407;-77
2022/06/07 06:22:57;;;;;;;6.20;1.27;;;;;;;;;;5072218;28;20426;-78
2022/06/07 06:25:23;;;;;;;4.60;1.77;;;;;;;;;;5072601;28;20561;-77
2022/06/07 06:27:49;;;;;;;1.40;1.00;;;;;;;;;;5072740;28;21064;-76
2022/06/07 06:30:15;;;;;;;3.20;1.60;;;;;;;;;;5072528;28;20494;-75
2022/06/07 06:32:43;;;;;;;2.83;1.43;;;;;;;;;;5075600;28;20453;-76
2022/06/07 06:35:10;;;;;;;1.80;1.20;;;;;;;;;;5076367;28;20423;-77
2022/06/07 06:37:36;;;;;;;1.27;0.90;;;;;;;;;;5076303;28;20378;-75
2022/06/07 06:40:02;;;;;;;2.00;1.10;;;;;;;;;;5076265;28;20401;-76
2022/06/07 06:42:28;;;;;;;3.00;1.10;;;;;;;;;;5076217;28;20384;-77
2022/06/07 06:44:55;;;;;;;1.37;1.07;;;;;;;;;;5075626;28;20477;-75
2022/06/07 06:47:21;;;;;;;2.87;1.60;;;;;;;;;;5074692;28;20490;-76
2022/06/07 06:49:47;;;;;;;1.53;1.27;;;;;;;;;;5076207;28;20819;-75
2022/06/07 06:52:13;;;;;;;6.20;1.37;;;;;;;;;;5076296;28;20421;-77
2022/06/07 06:54:39;;;;;;;3.30;1.33;;;;;;;;;;5074481;28;20854;-75
2022/06/07 06:57:06;;;;;;;4.00;1.30;;;;;;;;;;5076237;28;20412;-75
2022/06/07 06:59:32;;;;;;;4.90;1.37;;;;;;;;;;5075880;28;20759;-76
2022/06/07 07:01:59;;;;;;;5.73;1.43;;;;;;;;;;5076003;28;20386;-75
2022/06/07 07:04:25;;;;;;;3.70;1.33;;;;;;;;;;5075609;28;20550;-77
2022/06/07 07:06:51;;;;;;;2.83;1.40;;;;;;;;;;5075882;28;20415;-75
2022/06/07 07:09:18;;;;;;;2.47;1.20;;;;;;;;;;5074797;28;20901;-75
2022/06/07 07:11:45;;;;;;;2.37;1.50;;;;;;;;;;5075625;28;20404;-76
2022/06/07 07:14:12;;;;;;;6.03;2.00;;;;;;;;;;5075297;28;20915;-76
2022/06/07 07:16:39;;;;;;;3.07;1.43;;;;;;;;;;5075560;28;20387;-75
2022/06/07 07:19:05;;;;;;;4.90;1.40;;;;;;;;;;5075735;28;20487;-75
2022/06/07 07:21:34;;;;;;;5.73;1.30;;;;;;;;;;5075488;28;20390;-75
2022/06/07 07:24:00;;;;;;;4.47;1.60;;;;;;;;;;5075034;28;20462;-76
2022/06/07 07:26:28;;;;;;;4.17;1.30;;;;;;;;;;5075360;28;20468;-75
2022/06/07 07:28:54;;;;;;;3.83;1.33;;;;;;;;;;5075503;28;20419;-75
2022/06/07 07:31:24;;;;;;;3.10;1.40;;;;;;;;;;5075197;28;20962;-75
2022/06/07 07:33:51;;;;;;;5.80;1.53;;;;;;;;;;5077399;28;20400;-75
2022/06/07 07:36:17;;;;;;;4.10;1.20;;;;;;;;;;5075207;28;20390;-75
2022/06/07 07:38:43;;;;;;;5.03;1.33;;;;;;;;;;5075300;28;20404;-76
2022/06/07 07:41:15;;;;;;;4.70;1.90;;;;;;;;;;5084645;28;20456;-76
2022/06/07 07:43:42;;;;;;;4.30;1.43;;;;;;;;;;5076413;28;20451;-75
2022/06/07 07:46:08;;;;;;;7.13;1.60;;;;;;;;;;5075062;28;20424;-76
2022/06/07 07:48:34;;;;;;;4.03;1.80;;;;;;;;;;5075026;28;20483;-76
2022/06/07 07:51:04;;;;;;;3.43;1.83;;;;;;;;;;5075071;28;20397;-76
2022/06/07 07:53:30;;;;;;;3.87;1.20;;;;;;;;;;5074607;28;20436;-78
2022/06/07 07:55:56;;;;;;;2.73;1.20;;;;;;;;;;5074685;28;20935;-76
2022/06/07 07:58:23;;;;;;;2.70;1.20;;;;;;;;;;5074767;28;20435;-76
2022/06/07 08:00:49;;;;;;;4.30;1.20;;;;;;;;;;5074974;28;20386;-77
2022/06/07 08:03:16;;;;;;;5.10;1.27;;;;;;;;;;5074507;28;20505;-77
2022/06/07 08:05:42;;;;;;;3.70;1.00;;;;;;;;;;5074662;28;20430;-77
2022/06/07 08:08:09;;;;;;;6.17;1.10;;;;;;;;;;5074740;28;20404;-76
2022/06/07 08:10:35;;;;;;;5.27;1.83;;;;;;;;;;5074567;28;20419;-78
2022/06/07 08:13:02;;;;;;;1.53;1.00;;;;;;;;;;5074461;28;20411;-78
2022/06/07 08:15:29;;;;;;;3.77;1.50;;;;;;;;;;5074612;28;20506;-77
2022/06/07 08:17:56;;;;;;;4.40;1.70;;;;;;;;;;5073134;28;20397;-77
2022/06/07 08:20:22;;;;;;;2.63;1.30;;;;;;;;;;5074590;28;20823;-77
2022/06/07 08:22:50;;;;;;;1.77;1.00;;;;;;;;;;5074251;28;20416;-77
2022/06/07 08:25:16;;;;;;;4.70;2.00;;;;;;;;;;5073959;28;20404;-77
2022/06/07 08:27:42;;;;;;;4.70;2.07;;;;;;;;;;5074253;28;20453;-76
2022/06/07 08:30:09;;;;;;;2.00;1.00;;;;;;;;;;5072779;28;20476;-79
2022/06/07 08:32:35;;;;;;;4.33;1.60;;;;;;;;;;5074366;28;20389;-75
2022/06/07 08:37:46;;;;;;;6.23;1.13;;;;;;;;;;5074086;28;20381;-76
2022/06/07 08:40:18;;;;;;;2.80;1.30;;;;;;;;;;5073859;28;20460;-77
2022/06/07 08:42:55;;;;;;;3.73;1.40;;;;;;;;;;5072631;28;20403;-75
2022/06/07 08:45:28;;;;;;;4.03;1.80;;;;;;;;;;5073772;28;20435;-75
2022/06/07 08:47:57;;;;;;;2.90;1.40;;;;;;;;;;5074164;28;20884;-75
2022/06/07 08:50:27;;;;;;;3.27;1.40;;;;;;;;;;5072497;28;20382;-76
2022/06/07 08:52:57;;;;;;;3.60;1.60;;;;;;;;;;5073535;28;20374;-78
2022/06/07 08:55:29;;;;;;;3.03;1.30;;;;;;;;;;5074147;28;20557;-79
2022/06/07 08:58:05;;;;;;;7.80;1.93;;;;;;;;;;5073825;28;20382;-76
2022/06/07 09:00:35;;;;;;;5.23;1.73;;;;;;;;;;5073737;28;20434;-78
2022/06/07 09:03:07;;;;;;;3.20;1.17;;;;;;;;;;5073192;28;20434;-78
2022/06/07 09:05:33;;;;;;;3.23;1.33;;;;;;;;;;5073773;28;20414;-78
2022/06/07 09:07:59;;;;;;;4.37;1.40;;;;;;;;;;5073598;28;20386;-78
2022/06/07 09:13:16;;;;;;;2.17;1.10;;;;;;;;;;5073440;28;20389;-79
2022/06/07 09:15:42;;;;;;;3.03;1.33;;;;;;;;;;5073347;28;20878;-77
2022/06/07 09:18:09;;;;;;;1.90;1.10;;;;;;;;;;5073413;28;20741;-78
2022/06/07 09:20:39;;;;;;;2.33;1.00;;;;;;;;;;5073398;28;20418;-76
2022/06/07 09:23:27;;;;;;;2.10;1.00;;;;;;;;;;5073147;28;20437;-76
2022/06/07 09:25:54;;;;;;;4.90;1.30;;;;;;;;;;5073142;28;20437;-78
2022/06/07 09:28:27;;;;;;;1.50;0.90;;;;;;;;;;5071980;28;20892;-77
2022/06/07 09:31:12;;;;;;;1.90;1.00;;;;;;;;;;5073067;28;20405;-77
2022/06/07 09:33:49;;;;;;;3.83;1.00;;;;;;;;;;5072894;28;20453;-76
2022/06/07 09:36:20;;;;;;;2.13;0.90;;;;;;;;;;5072986;28;20456;-78
2022/06/07 09:38:47;;;;;;;1.63;1.03;;;;;;;;;;5072924;28;20407;-78
2022/06/07 09:41:37;;;;;;;2.40;1.37;;;;;;;;;;5073076;28;20420;-78
2022/06/07 09:44:26;;;;;;;1.57;1.00;;;;;;;;;;5072623;28;21000;-76
2022/06/07 09:47:21;;;;;;;3.23;1.37;;;;;;;;;;5053366;28;20799;-77
2022/06/07 09:49:50;;;;;;;1.93;0.80;;;;;;;;;;5064284;28;20401;-78
2022/06/07 09:52:20;;;;;;;2.57;1.23;;;;;;;;;;5072971;28;20413;-79
2022/06/07 09:54:47;;;;;;;2.40;0.87;;;;;;;;;;5072511;28;20435;-78
2022/06/07 09:57:21;;;;;;;2.20;0.80;;;;;;;;;;5073052;28;20454;-78
2022/06/07 09:59:47;;;;;;;2.50;1.03;;;;;;;;;;5072991;28;20443;-78
2022/06/07 10:02:32;;;;;;;4.57;1.30;;;;;;;;;;5071691;28;20455;-78
2022/06/07 10:05:04;;;;;;;1.93;1.03;;;;;;;;;;5072264;28;20470;-78
2022/06/07 10:07:30;;;;;;;4.30;1.00;;;;;;;;;;5074319;28;20427;-79
2022/06/07 10:10:15;;;;;;;1.30;0.90;;;;;;;;;;5076727;28;20989;-79
2022/06/07 10:12:50;;;;;;;2.43;1.10;;;;;;;;;;5076806;28;20410;-78
2022/06/07 10:15:31;;;;;;;1.67;0.90;;;;;;;;;;5076563;28;20422;-79
2022/06/07 10:18:16;;;;;;;2.03;0.97;;;;;;;;;;5076969;28;20409;-78
2022/06/07 10:21:01;;;;;;;3.40;1.40;;;;;;;;;;5076832;28;20410;-77
2022/06/07 10:23:36;;;;;;;1.37;0.87;;;;;;;;;;5076479;28;20990;-78
2022/06/07 10:26:18;;;;;;;1.90;1.00;;;;;;;;;;5076553;28;20502;-77
2022/06/07 10:28:54;;;;;;;1.63;0.80;;;;;;;;;;5076724;28;20807;-78
2022/06/07 10:31:23;;;;;;;2.67;1.20;;;;;;;;;;5076414;28;20419;-79
2022/06/07 10:33:55;;;;;;;2.00;0.90;;;;;;;;;;5076037;28;20457;-76
2022/06/07 10:36:32;;;;;;;2.00;1.20;;;;;;;;;;5076509;28;20458;-77
2022/06/07 10:39:07;;;;;;;3.13;1.23;;;;;;;;;;5076306;28;20423;-77
2022/06/07 10:41:52;;;;;;;4.63;1.60;;;;;;;;;;5076306;28;20789;-76
2022/06/07 10:44:18;;;;;;;1.77;1.10;;;;;;;;;;5075678;28;20449;-76
2022/06/07 10:46:44;;;;;;;3.53;1.13;;;;;;;;;;5075946;28;20404;-77
2022/06/07 10:49:15;;;;;;;9.73;1.50;;;;;;;;;;5074691;28;20401;-77
2022/06/07 10:54:49;;;;;;;2.63;1.07;;;;;;;;;;5075865;28;20446;-77
2022/06/07 10:57:33;;;;;;;7.90;1.40;;;;;;;;;;5075828;28;20410;-78
2022/06/07 11:00:01;;;;;;;2.53;1.63;;;;;;;;;;5075838;28;20419;-78
2022/06/07 11:02:48;;;;;;;1.20;0.90;;;;;;;;;;5075861;28;20435;-77
2022/06/07 11:10:56;;;;;;;3.20;1.13;;;;;;;;;;5076160;28;20469;-78
2022/06/07 11:13:25;;;;;;;2.10;1.17;;;;;;;;;;5075193;28;20782;-76
2022/06/07 11:15:51;;;;;;;5.00;1.60;;;;;;;;;;5075829;28;20457;-75
2022/06/07 11:18:19;;;;;;;1.67;1.10;;;;;;;;;;5074448;28;20400;-74
2022/06/07 11:20:50;;;;;;;1.40;1.20;;;;;;;;;;5075389;28;20395;-74
2022/06/07 11:23:20;;;;;;;3.50;1.27;;;;;;;;;;5074906;28;20538;-76
2022/06/07 11:26:05;;;;;;;2.67;1.30;;;;;;;;;;5075278;28;20537;-74
2022/06/07 11:28:33;;;;;;;7.43;1.30;;;;;;;;;;5086195;28;20381;-75
2022/06/07 11:31:18;;;;;;;2.83;0.90;;;;;;;;;;5078007;28;20430;-76
2022/06/07 11:33:53;;;;;;;4.83;0.97;;;;;;;;;;5074893;28;20415;-76
2022/06/07 11:36:25;;;;;;;5.07;1.13;;;;;;;;;;5075248;28;20415;-76
2022/06/07 11:41:38;;;;;;;3.67;1.07;;;;;;;;;;5074896;28;20378;-77
2022/06/07 11:44:04;;;;;;;1.03;0.93;;;;;;;;;;5074788;28;20426;-76
2022/06/07 11:46:33;;;;;;;1.73;1.57;;;;;;;;;;5074985;28;20410;-76
2022/06/07 11:49:19;;;;;;;3.90;1.40;;;;;;;;;;5075039;28;20381;-77
2022/06/07 11:51:56;;;;;;;2.53;1.57;;;;;;;;;;5074659;28;20398;-76
2022/06/07 11:54:24;;;;;;;2.97;1.67;;;;;;;;;;5074409;28;20423;-79
2022/06/07 11:56:51;;;;;;;3.20;1.57;;;;;;;;;;5074751;28;20385;-78
2022/06/07 11:59:18;;;;;;;6.50;2.20;;;;;;;;;;5074875;28;20382;-77
2022/06/07 12:01:46;;;;;;;2.50;2.27;;;;;;;;;;5074692;28;20520;-77
2022/06/07 12:04:29;;;;;;;3.10;1.77;;;;;;;;;;5073968;28;20509;-77
2022/06/07 12:06:58;;;;;;;3.80;1.83;;;;;;;;;;5074582;28;20499;-75
2022/06/07 12:09:24;;;;;;;2.70;1.50;;;;;;;;;;5073208;28;20463;-75
2022/06/07 12:11:50;;;;;;;2.60;1.80;;;;;;;;;;5074133;28;20417;-77
2022/06/07 12:14:20;;;;;;;2.77;1.70;;;;;;;;;;5073929;28;20460;-78
2022/06/07 12:16:59;;;;;;;3.53;1.60;;;;;;;;;;5074501;28;20418;-77
2022/06/07 12:19:30;;;;;;;1.93;1.60;;;;;;;;;;5074395;28;20779;-78
2022/06/07 12:22:11;;;;;;;3.50;1.70;;;;;;;;;;5072761;28;20399;-78
2022/06/07 12:24:42;;;;;;;3.63;2.07;;;;;;;;;;5073736;28;20466;-76
2022/06/07 12:27:21;;;;;;;2.07;1.50;;;;;;;;;;5074251;28;20736;-79
2022/06/07 12:29:47;;;;;;;4.30;1.80;;;;;;;;;;5073941;28;20422;-77
2022/06/07 12:32:17;;;;;;;2.63;1.80;;;;;;;;;;5073901;28;20770;-75
2022/06/07 12:34:43;;;;;;;1.90;1.73;;;;;;;;;;5073647;28;20517;-76
2022/06/07 12:37:09;;;;;;;5.63;1.90;;;;;;;;;;5072703;28;20410;-77
2022/06/07 12:39:41;;;;;;;1.60;1.40;;;;;;;;;;5073872;28;20943;-75
2022/06/07 12:42:12;;;;;;;2.50;1.70;;;;;;;;;;5072494;28;20851;-76
2022/06/07 12:44:43;;;;;;;3.63;1.90;;;;;;;;;;5073307;28;20480;-77
2022/06/07 12:47:22;;;;;;;2.33;1.70;;;;;;;;;;5073716;28;20383;-76
2022/06/07 12:49:48;;;;;;;1.53;1.43;;;;;;;;;;5073662;28;20926;-78
2022/06/07 12:52:26;;;;;;;2.00;1.53;;;;;;;;;;5073319;28;20403;-77
2022/06/07 12:54:54;;;;;;;1.83;1.20;;;;;;;;;;5073162;28;20514;-76
2022/06/07 12:57:25;;;;;;;2.10;1.90;;;;;;;;;;5073471;28;20406;-77
2022/06/07 12:59:54;;;;;;;3.67;2.27;;;;;;;;;;5073291;28;20427;-76
2022/06/07 13:02:41;;;;;;;2.37;1.80;;;;;;;;;;5073132;28;20419;-75
2022/06/07 13:05:10;;;;;;;3.63;1.93;;;;;;;;;;5072878;28;20443;-78
2022/06/07 13:07:43;;;;;;;1.93;1.60;;;;;;;;;;5073404;28;20922;-78
2022/06/07 13:10:17;;;;;;;3.57;1.60;;;;;;;;;;5073039;28;20390;-79
2022/06/07 13:12:45;;;;;;;1.93;1.60;;;;;;;;;;5073223;28;20490;-77
2022/06/07 13:15:16;;;;;;;1.43;1.20;;;;;;;;;;5072812;28;20398;-79
2022/06/07 13:17:52;;;;;;;1.77;1.50;;;;;;;;;;5073364;28;20502;-74
2022/06/07 13:20:29;;;;;;;4.70;1.60;;;;;;;;;;5072929;28;20384;-76
2022/06/07 13:22:55;;;;;;;6.63;1.77;;;;;;;;;;5072732;28;20465;-75
2022/06/07 13:25:32;;;;;;;2.67;1.60;;;;;;;;;;5071774;28;20402;-76
2022/06/07 13:28:07;;;;;;;4.33;1.80;;;;;;;;;;5072936;28;20378;-77
2022/06/07 13:30:33;;;;;;;2.27;1.40;;;;;;;;;;5072746;28;20792;-76
2022/06/07 13:33:18;;;;;;;1.30;1.13;;;;;;;;;;5071485;28;20416;-75
2022/06/07 13:35:50;;;;;;;2.77;1.40;;;;;;;;;;5071546;28;20439;-75
2022/06/07 13:38:22;;;;;;;3.03;1.77;;;;;;;;;;5071557;28;20447;-76
2022/06/07 13:40:59;;;;;;;3.57;1.43;;;;;;;;;;5072302;28;20379;-77
2022/06/07 13:43:25;;;;;;;1.60;1.50;;;;;;;;;;5072405;28;20500;-75
2022/06/07 13:45:52;;;;;;;1.90;1.70;;;;;;;;;;5072462;28;20916;-76
2022/06/07 13:54:13;;;;;;;2.77;1.67;;;;;;;;;;5072366;28;20374;-75
2022/06/07 13:56:39;;;;;;;2.63;1.90;;;;;;;;;;5072657;28;20774;-77
2022/06/07 13:59:05;;;;;;;2.90;2.10;;;;;;;;;;5072540;28;20409;-75
2022/06/07 14:01:35;;;;;;;2.30;1.50;;;;;;;;;;5072645;28;20425;-78
2022/06/07 14:04:01;;;;;;;1.70;1.60;;;;;;;;;;5072219;28;20454;-78
2022/06/07 14:06:30;;;;;;;4.07;1.90;;;;;;;;;;5072588;28;20693;-77
2022/06/07 14:08:56;;;;;;;3.40;1.70;;;;;;;;;;5072479;28;20786;-76
2022/06/07 14:11:22;;;;;;;1.60;1.50;;;;;;;;;;5072715;28;20461;-79
2022/06/07 14:13:49;;;;;;;6.80;1.77;;;;;;;;;;5072271;28;20395;-77
2022/06/07 14:16:30;;;;;;;3.40;1.70;;;;;;;;;;5071225;28;20943;-80
2022/06/07 14:18:56;;;;;;;4.13;1.83;;;;;;;;;;5072460;28;20415;-77
2022/06/07 14:21:22;;;;;;;2.23;1.50;;;;;;;;;;5072390;28;20410;-77
2022/06/07 14:23:48;;;;;;;3.87;1.97;;;;;;;;;;5070765;28;20438;-77
2022/06/07 14:26:14;;;;;;;6.43;2.03;;;;;;;;;;5071340;28;20406;-76
2022/06/07 14:28:40;;;;;;;3.57;2.23;;;;;;;;;;5072661;28;20412;-77
2022/06/07 14:31:11;;;;;;;2.20;1.80;;;;;;;;;;5072374;28;20515;-76
2022/06/07 14:33:37;;;;;;;1.93;1.83;;;;;;;;;;5072080;28;20408;-79
2022/06/07 14:36:03;;;;;;;1.60;1.50;;;;;;;;;;5072211;28;20431;-80
2022/06/07 14:38:29;;;;;;;1.97;1.77;;;;;;;;;;5072381;28;20466;-76
2022/06/07 14:40:55;;;;;;;3.43;1.90;;;;;;;;;;5072206;28;20450;-77
2022/06/07 14:43:22;;;;;;;4.80;2.10;;;;;;;;;;5070741;28;20588;-78
2022/06/07 14:45:52;;;;;;;2.87;2.03;;;;;;;;;;5072236;28;20433;-79
2022/06/07 14:48:27;;;;;;;3.23;2.10;;;;;;;;;;5072366;28;20424;-79
2022/06/07 14:50:53;;;;;;;3.20;2.47;;;;;;;;;;5072175;28;20415;-79
2022/06/07 14:53:19;;;;;;;3.80;3.27;;;;;;;;;;5074148;28;20418;-80
2022/06/07 14:55:45;;;;;;;4.50;3.00;;;;;;;;;;5075867;28;20435;-77
2022/06/07 14:58:10;;;;;;;3.37;2.60;;;;;;;;;;5074434;28;20783;-76
2022/06/07 15:00:38;;;;;;;3.57;3.00;;;;;;;;;;5075802;28;20412;-80
2022/06/07 15:03:05;;;;;;;2.53;1.87;;;;;;;;;;5075342;28;20415;-81
2022/06/07 15:05:32;;;;;;;5.57;2.33;;;;;;;;;;5074381;28;20453;-80
2022/06/07 15:08:00;;;;;;;3.53;2.13;;;;;;;;;;5075781;28;20407;-79
2022/06/07 15:10:28;;;;;;;2.70;2.50;;;;;;;;;;5075587;28;20414;-77
2022/06/07 15:12:54;;;;;;;4.60;2.17;;;;;;;;;;5075711;28;20408;-78
2022/06/07 15:15:21;;;;;;;2.97;1.87;;;;;;;;;;5075395;28;20511;-79
2022/06/07 15:17:54;;;;;;;3.03;2.53;;;;;;;;;;5075726;28;20412;-81
2022/06/07 15:20:27;;;;;;;2.70;1.80;;;;;;;;;;5074125;28;20498;-79
2022/06/07 15:22:54;;;;;;;2.23;2.03;;;;;;;;;;5075259;28;20408;-77
2022/06/07 15:25:22;;;;;;;2.67;2.10;;;;;;;;;;5075497;28;20484;-80